Hovedside
METAR-TAF:

METAR-TAF

Lufthavner :

Monastir, Tunisia

breddegrad: 35-46N, lengdegrad: 010-45E, høyde over havet: 2 m

Gjeldene værobservasjon

Denne rapporten ble laget for 54 minutter siden, klokken 09:00 UTC
Vind 5 kt fra Sør
Temperatur 14°C
Luftfuktighet 63%
Trykk 1016 hPa
Sikt 10 km eller mer
ingen skyer under 1500 m og ingen bygeskyer

METAR: DTMB 130900Z 19005KT CAVOK 14/07 Q1016

Tid: 10:54 (09:54 UTC)

Varsel

Denne rapporten ble laget for 4 timer og 54 minutter siden, klokken 05:00 UTC
Varsel gyldig fra 13. klokken 06 UTC til 14. klokken 06 UTC
Vind 4 kt fra Sør
Sikt: 8000 m
Få skyer i en høyde av 3300 ft
Blir
fra 13. klokken 18 UTC til 13. klokken 20 UTC
Vind 17 kt fra Sør-sørvest

TAF: DTMB 130500Z 1306/1406 18004KT 8000 FEW033 BECMG 1318/1320 20017KT

Værobservasjoner og værvarsel for over 4000 flyplasser (METAR- og TAF-rapporter).

Tilgjengelige stasjoner er representert av de røde og gule prikkene på kartet.

Hold musepekeren over prikken for å se navnet på stasjonen.

Klikk så for å se værobservasjoner og -varsler.

For å forandre kartet kan du klikke på den grønne knappen med svart kryss for å zoome inn, på den grønne knappen med strek for å zoome ut, eller på de grønne pilene for å se tilstøtende kart.


METAR-TAF: